Time;durP1;ratioP1;P1;durP2;ratioP2;P2;SDS_P1;SDS_P2;PMS_P1;PMS_P2;Temp;Humidity;BMP_temperature;BMP_pressure;BME280_temperature;BME280_humidity;BME280_pressure;Samples;Min_cycle;Max_cycle;Signal;HPM_P1;HPM_P2
2021/07/20 00:01:05;;;;;;;;;12.00;11.00;;;;;23.03;56.62;101142.53;4973604;28;69187;-60
2021/07/20 00:03:30;;;;;;;;;14.25;12.25;;;;;22.95;57.63;101138.22;4973889;28;63184;-60
2021/07/20 00:05:56;;;;;;;;;13.25;12.50;;;;;22.91;56.96;101140.44;4973376;28;72553;-59
2021/07/20 00:08:21;;;;;;;;;17.50;14.00;;;;;22.86;57.48;101134.88;4973375;28;72953;-60
2021/07/20 00:10:53;;;;;;;;;15.25;12.25;;;;;22.83;57.39;101132.59;4976722;28;45231;-60
2021/07/20 00:13:18;;;;;;;;;13.00;11.75;;;;;22.80;57.21;101138.38;4974366;28;45438;-60
2021/07/20 00:15:44;;;;;;;;;16.00;12.75;;;;;22.77;57.64;101128.91;4973669;28;65341;-59
2021/07/20 00:18:13;;;;;;;;;12.00;11.75;;;;;22.74;57.18;101134.66;4974218;28;45402;-60
2021/07/20 00:20:38;;;;;;;;;11.75;11.75;;;;;22.71;57.83;101134.25;4974211;28;45763;-60
2021/07/20 00:23:04;;;;;;;;;15.50;14.00;;;;;22.66;57.39;101129.47;4975789;27;54211;-59
2021/07/20 00:25:30;;;;;;;;;15.50;12.00;;;;;22.63;57.51;101127.19;4974162;28;46232;-59
2021/07/20 00:27:56;;;;;;;;;14.75;13.00;;;;;22.59;57.37;101121.44;4974173;28;45363;-59
2021/07/20 00:30:21;;;;;;;;;14.00;13.00;;;;;22.56;57.67;101119.16;4974265;28;45375;-59
2021/07/20 00:32:46;;;;;;;;;11.25;11.25;;;;;22.57;57.73;101126.16;4974289;28;45632;-60
2021/07/20 00:35:12;;;;;;;;;12.25;10.00;;;;;22.53;57.99;101120.38;4973979;28;45416;-59
2021/07/20 00:37:37;;;;;;;;;14.50;14.00;;;;;22.52;57.50;101117.91;4974953;28;46322;-59
2021/07/20 00:40:04;;;;;;;;;13.75;12.50;;;;;22.48;57.53;101124.69;4977113;28;45438;-59
2021/07/20 00:42:30;;;;;;;;;13.25;13.00;;;;;22.45;58.26;101117.91;4976924;28;45208;-59
2021/07/20 00:44:55;;;;;;;;;14.50;12.50;;;;;22.41;58.29;101113.09;4975989;28;73763;-60
2021/07/20 00:47:20;;;;;;;;;12.75;12.75;;;;;22.37;58.30;101118.84;4975996;28;69757;-60
2021/07/20 00:49:47;;;;;;;;;13.75;12.75;;;;;22.34;58.54;101113.91;4976023;28;68737;-59
2021/07/20 00:52:13;;;;;;;;;11.75;10.25;;;;;22.31;58.12;101118.84;4977014;28;45581;-60
2021/07/20 00:54:38;;;;;;;;;12.00;11.75;;;;;22.27;58.25;101113.03;4976747;28;46176;-60
2021/07/20 00:57:04;;;;;;;;;15.00;14.25;;;;;22.25;58.31;101115.13;4975610;28;45488;-60
2021/07/20 00:59:30;;;;;;;;;11.50;11.25;;;;;22.22;58.72;101118.19;4976762;28;45292;-60
2021/07/20 01:01:55;;;;;;;;;16.00;14.00;;;;;22.18;58.52;101111.59;4975239;28;45322;-59
2021/07/20 01:04:21;;;;;;;;;13.00;12.75;;;;;22.15;58.44;101115.47;4975298;28;46463;-60
2021/07/20 01:06:47;;;;;;;;;13.75;13.50;;;;;22.11;59.01;101113.41;4976670;28;46002;-60
2021/07/20 01:09:12;;;;;;;;;12.00;11.00;;;;;22.07;58.79;101112.97;4976070;28;63773;-61
2021/07/20 01:11:38;;;;;;;;;13.00;12.25;;;;;22.03;59.35;101117.91;4975528;28;45359;-59
2021/07/20 01:14:04;;;;;;;;;13.50;11.75;;;;;22.02;59.41;101110.06;4976524;28;45467;-60
2021/07/20 01:16:32;;;;;;;;;12.00;11.25;;;;;21.99;59.38;101110.47;4975928;28;60967;-59
2021/07/20 01:18:58;;;;;;;;;13.50;12.00;;;;;21.97;59.55;101105.31;4976365;28;45383;-60
2021/07/20 01:21:26;;;;;;;;;13.25;12.00;;;;;21.94;59.09;101114.56;4976235;28;45570;-60
2021/07/20 01:23:52;;;;;;;;;13.25;13.00;;;;;21.91;59.41;101111.44;4976503;28;45992;-60
2021/07/20 01:26:18;;;;;;;;;13.25;12.75;;;;;21.88;59.22;101101.13;4975363;28;45869;-59
2021/07/20 01:28:43;;;;;;;;;14.50;12.75;;;;;21.84;59.79;101107.91;4976432;28;45255;-60
2021/07/20 01:31:11;;;;;;;;;15.50;13.00;;;;;21.81;59.54;101119.00;4974428;28;65691;-60
2021/07/20 01:33:40;;;;;;;;;16.75;11.75;;;;;21.76;60.03;101115.06;4976277;28;46347;-60
2021/07/20 01:36:06;;;;;;;;;14.00;13.00;;;;;21.73;59.88;101117.31;4958822;28;46947;-59
2021/07/20 01:38:31;;;;;;;;;12.25;10.50;;;;;21.70;59.99;101113.19;4975237;28;45445;-59
2021/07/20 01:40:59;;;;;;;;;14.50;12.75;;;;;21.66;59.92;101119.94;4958854;28;45425;-59
2021/07/20 01:43:24;;;;;;;;;14.00;11.25;;;;;21.61;60.21;101114.31;4975099;28;45457;-59
2021/07/20 01:45:50;;;;;;;;;13.25;11.75;;;;;21.58;60.36;101109.38;4960313;28;45404;-59
2021/07/20 01:48:15;;;;;;;;;13.50;13.00;;;;;21.58;60.17;101114.72;4957926;28;65263;-59
2021/07/20 01:50:41;;;;;;;;;15.00;12.25;;;;;21.56;60.49;101114.09;4957516;28;56948;-58
2021/07/20 01:53:06;;;;;;;;;11.50;11.00;;;;;21.56;60.25;101114.91;4974901;28;46093;-59
2021/07/20 01:55:31;;;;;;;;;12.25;11.50;;;;;21.57;60.08;101121.09;4958665;28;45379;-59
2021/07/20 01:57:57;;;;;;;;;15.00;15.00;;;;;21.55;60.10;101121.25;4975080;28;45221;-59
2021/07/20 02:00:23;;;;;;;;;13.25;13.25;;;;;21.54;60.36;101124.16;4975236;28;66797;-59
2021/07/20 02:03:11;;;;;;;;;13.00;12.00;;;;;21.52;60.74;101128.88;4975825;28;46108;-60
2021/07/20 02:10:47;;;;;;;;;17.00;13.00;;;;;21.44;60.56;101129.84;4958741;28;45503;-60
2021/07/20 02:13:15;;;;;;;;;15.25;13.00;;;;;21.40;60.40;101120.56;4974887;28;72167;-61
2021/07/20 02:15:40;;;;;;;;;12.00;11.50;;;;;21.37;60.85;101121.75;4958720;28;45383;-60
2021/07/20 02:18:05;;;;;;;;;11.25;10.25;;;;;21.33;61.04;101121.31;4958532;28;45383;-60
2021/07/20 02:20:31;;;;;;;;;11.75;11.50;;;;;21.30;61.00;101126.22;4957521;28;61266;-61
2021/07/20 02:22:56;;;;;;;;;11.00;11.00;;;;;21.26;61.27;101125.78;4957360;28;69378;-60
2021/07/20 02:25:26;;;;;;;;;13.50;12.75;;;;;21.25;61.28;101125.97;4976625;28;45443;-61
2021/07/20 02:27:52;;;;;;;;;12.00;12.00;;;;;21.24;61.20;101129.66;4974715;28;45461;-61
2021/07/20 02:30:18;;;;;;;;;13.50;13.50;;;;;21.20;60.94;101129.22;4958328;28;45413;-61
2021/07/20 02:32:43;;;;;;;;;12.50;11.25;;;;;21.17;61.17;101127.78;4975599;28;45850;-60
2021/07/20 02:35:09;;;;;;;;;12.25;12.25;;;;;21.15;60.98;101120.94;4974427;28;45256;-60
2021/07/20 02:37:35;;;;;;;;;13.00;11.25;;;;;21.14;61.20;101124.66;4975557;28;45349;-60
2021/07/20 02:40:01;;;;;;;;;13.75;11.00;;;;;21.12;61.18;101124.84;4958186;28;45284;-61
2021/07/20 02:42:26;;;;;;;;;14.00;13.00;;;;;21.11;61.49;101125.88;4974181;28;45288;-60
2021/07/20 02:44:52;;;;;;;;;12.75;10.50;;;;;21.08;61.52;101120.91;4973567;28;65617;-60
2021/07/20 02:47:17;;;;;;;;;13.00;12.25;;;;;21.04;61.73;101122.31;4958006;28;45791;-61
2021/07/20 02:49:42;;;;;;;;;11.25;11.00;;;;;21.01;61.34;101122.69;4974646;28;66068;-61
2021/07/20 02:52:08;;;;;;;;;14.75;12.00;;;;;21.00;61.60;101121.03;4973350;28;69222;-61
2021/07/20 02:54:33;;;;;;;;;13.25;12.50;;;;;20.97;61.90;101118.75;4957266;28;62789;-61
2021/07/20 02:56:58;;;;;;;;;15.50;13.75;;;;;20.95;61.25;101113.56;4957047;28;68771;-61
2021/07/20 02:59:24;;;;;;;;;16.50;14.00;;;;;20.95;61.98;101126.94;4974303;28;45570;-61
2021/07/20 03:01:54;;;;;;;;;12.25;10.25;;;;;20.93;61.72;101122.81;4973538;28;46393;-60
2021/07/20 03:04:19;;;;;;;;;14.75;13.00;;;;;20.93;61.60;101123.63;4975255;28;45305;-61
2021/07/20 03:06:54;;;;;;;;;14.25;11.00;;;;;20.89;61.75;101117.84;4957060;28;66478;-61
2021/07/20 03:09:23;;;;;;;;;15.50;13.25;;;;;20.85;61.38;101116.56;4959611;28;45245;-61
2021/07/20 03:11:49;;;;;;;;;12.50;11.00;;;;;20.83;61.59;101123.94;4973985;28;46055;-60
2021/07/20 03:14:17;;;;;;;;;14.25;13.00;;;;;20.80;62.09;101120.84;4943091;28;45459;-60
2021/07/20 03:16:42;;;;;;;;;17.25;13.00;;;;;20.79;62.06;101122.66;4974243;28;45394;-61
2021/07/20 03:19:08;;;;;;;;;15.75;12.25;;;;;20.78;62.01;101125.53;4957709;28;45445;-60
2021/07/20 03:21:34;;;;;;;;;14.50;12.75;;;;;20.72;61.75;101121.72;4973486;28;46593;-60
2021/07/20 03:23:59;;;;;;;;;13.00;11.75;;;;;20.70;61.74;101121.94;4975031;28;45380;-60
2021/07/20 03:26:24;;;;;;;;;11.50;10.75;;;;;20.67;61.95;101118.81;4956707;28;68020;-60
2021/07/20 03:28:50;;;;;;;;;12.00;10.00;;;;;20.63;61.55;101114.88;4957818;28;45571;-61
2021/07/20 03:31:16;;;;;;;;;16.00;12.50;;;;;20.61;62.11;101125.72;4956747;28;66323;-61
2021/07/20 03:33:41;;;;;;;;;12.25;12.25;;;;;20.57;61.72;101119.13;4972812;28;71435;-60
2021/07/20 03:36:06;;;;;;;;;11.50;11.25;;;;;20.54;62.13;101120.34;4957594;28;45309;-61
2021/07/20 03:38:32;;;;;;;;;14.25;12.75;;;;;20.54;61.79;101120.34;4975004;28;45538;-61
2021/07/20 03:40:57;;;;;;;;;12.00;11.00;;;;;20.49;61.81;101122.72;4973744;28;45935;-60
2021/07/20 03:43:23;;;;;;;;;16.25;13.00;;;;;20.47;61.91;101122.09;4972561;28;66349;-60
2021/07/20 03:45:48;;;;;;;;;17.75;14.50;;;;;;;;4974888;28;45317;-61
2021/07/20 03:48:14;;;;;;;;;17.75;13.00;;;;;20.38;62.34;101126.72;4973023;28;60021;-61
2021/07/20 03:50:40;;;;;;;;;13.75;12.75;;;;;20.36;62.30;101123.41;4972600;28;70287;-60
2021/07/20 03:53:06;;;;;;;;;14.75;12.00;;;;;20.34;61.98;101119.25;4973551;28;45916;-61
2021/07/20 03:55:31;;;;;;;;;12.00;12.00;;;;;20.28;62.37;101124.31;4957261;28;45406;-60
2021/07/20 03:57:57;;;;;;;;;14.00;13.00;;;;;20.27;61.95;101120.00;4972640;28;68888;-60
2021/07/20 04:00:22;;;;;;;;;13.75;12.50;;;;;20.26;62.33;101130.88;4973310;28;45844;-61
2021/07/20 04:05:32;;;;;;;;;14.50;13.75;;;;;20.20;62.65;101129.75;4973511;28;45327;-61
2021/07/20 04:07:58;;;;;;;;;17.25;12.75;;;;;20.17;62.51;101133.63;4956284;28;64382;-60
2021/07/20 04:10:23;;;;;;;;;14.50;13.00;;;;;20.14;62.75;101128.66;4957019;28;45468;-60
2021/07/20 04:12:49;;;;;;;;;11.00;10.00;;;;;20.14;62.54;101136.66;4971440;28;69015;-61
2021/07/20 04:15:14;;;;;;;;;13.50;13.50;;;;;20.09;62.90;101133.72;4972520;28;63498;-60
2021/07/20 04:17:40;;;;;;;;;15.25;13.25;;;;;20.09;62.66;101133.72;4973214;28;46296;-61
2021/07/20 04:20:05;;;;;;;;;18.00;13.25;;;;;20.05;62.92;101132.44;4956052;28;68207;-60
2021/07/20 04:22:31;;;;;;;;;16.25;15.00;;;;;20.04;62.85;101141.44;4973893;28;45236;-61
2021/07/20 04:24:56;;;;;;;;;12.00;12.00;;;;;20.05;62.98;101152.97;4972413;28;64368;-60
2021/07/20 04:27:22;;;;;;;;;15.00;13.50;;;;;20.01;62.51;101147.16;4956141;28;62470;-61
2021/07/20 04:29:47;;;;;;;;;13.25;12.75;;;;;20.01;63.09;101152.47;4956720;28;45261;-60
2021/07/20 04:32:13;;;;;;;;;19.25;15.50;;;;;20.00;62.74;101141.00;4973365;28;64147;-61
2021/07/20 04:34:38;;;;;;;;;10.75;10.00;;;;;20.00;62.96;101159.69;4955721;28;66873;-60
2021/07/20 04:37:05;;;;;;;;;18.75;16.25;;;;;20.00;62.68;101161.50;4956746;28;45357;-61
2021/07/20 04:39:35;;;;;;;;;15.00;11.00;;;;;19.99;63.04;101158.00;4973005;28;45423;-60
2021/07/20 04:42:04;;;;;;;;;15.25;13.00;;;;;19.99;63.22;101155.34;4974260;28;45284;-61
2021/07/20 04:44:30;;;;;;;;;15.50;13.00;;;;;20.01;62.84;101153.31;4957052;28;45404;-61
2021/07/20 04:46:55;;;;;;;;;15.50;14.25;;;;;20.01;63.03;101153.31;4974071;28;45378;-60
2021/07/20 04:49:21;;;;;;;;;15.50;14.25;;;;;20.01;62.90;101152.47;4956443;28;45786;-61
2021/07/20 04:51:46;;;;;;;;;14.00;11.75;;;;;20.01;63.41;101156.00;4973832;28;45296;-60
2021/07/20 04:54:14;;;;;;;;;15.50;14.50;;;;;20.01;63.43;101145.31;4955806;28;61989;-61
2021/07/20 04:56:39;;;;;;;;;15.00;14.25;;;;;20.04;63.05;101154.78;4972667;28;45507;-61
2021/07/20 04:59:04;;;;;;;;;19.00;16.75;;;;;20.08;62.60;101152.59;4972745;28;72493;-60
2021/07/20 05:01:31;;;;;;;;;15.50;14.50;;;;;20.12;62.98;101153.88;4971752;28;65131;-61
2021/07/20 05:03:57;;;;;;;;;13.50;13.50;;;;;20.12;63.05;101162.69;4972396;28;45954;-60
2021/07/20 05:06:22;;;;;;;;;16.75;13.75;;;;;20.14;62.77;101155.34;4955524;28;65657;-61
2021/07/20 05:08:47;;;;;;;;;14.00;13.00;;;;;20.16;62.66;101160.47;4972402;28;45517;-61
2021/07/20 05:11:13;;;;;;;;;15.00;13.25;;;;;20.19;63.08;101164.63;4970952;28;73043;-60
2021/07/20 05:13:38;;;;;;;;;19.00;16.00;;;;;20.21;62.69;101162.63;4971658;28;56628;-61
2021/07/20 05:16:05;;;;;;;;;14.25;13.00;;;;;20.22;63.13;101164.28;4972671;28;64519;-61
2021/07/20 05:18:31;;;;;;;;;15.75;15.75;;;;;20.26;62.85;101165.56;4972144;28;47483;-60
2021/07/20 05:20:59;;;;;;;;;16.50;12.75;;;;;20.28;62.98;101159.00;4970962;28;68583;-61
2021/07/20 05:23:25;;;;;;;;;15.00;14.00;;;;;20.33;63.01;101161.13;4956607;28;45445;-61
2021/07/20 05:25:54;;;;;;;;;18.25;15.50;;;;;20.37;62.38;101161.59;4959036;28;45505;-61
2021/07/20 05:28:20;;;;;;;;;16.50;14.00;;;;;20.42;61.70;101161.84;4976354;28;46287;-61
2021/07/20 05:30:45;;;;;;;;;19.50;14.50;;;;;20.48;60.64;101158.44;4975012;28;45379;-61
2021/07/20 05:33:11;;;;;;;;;17.50;13.75;;;;;20.55;61.21;101166.53;4958235;28;65125;-61
2021/07/20 05:35:36;;;;;;;;;18.00;15.00;;;;;20.61;60.99;101163.94;4976386;28;45581;-60
2021/07/20 05:38:02;;;;;;;;;19.75;18.00;;;;;20.68;61.54;101169.34;4974909;28;46040;-61
2021/07/20 05:40:27;;;;;;;;;19.00;16.50;;;;;20.75;60.57;101166.75;4976093;28;45400;-60
2021/07/20 05:42:55;;;;;;;;;20.25;17.25;;;;;20.81;60.10;101165.22;4975520;28;59789;-60
2021/07/20 05:45:21;;;;;;;;;16.75;15.50;;;;;20.89;59.49;101167.78;4974975;28;45267;-61
2021/07/20 05:47:48;;;;;;;;;16.75;16.00;;;;;20.96;59.45;101173.19;4958606;28;45858;-60
2021/07/20 05:50:14;;;;;;;;;20.75;16.25;;;;;21.03;59.13;101171.41;4976055;28;45366;-61
2021/07/20 05:52:45;;;;;;;;;20.00;18.50;;;;;21.12;58.89;101175.63;4974163;28;60569;-61
2021/07/20 05:55:11;;;;;;;;;20.50;18.25;;;;;21.20;58.08;101178.13;4976010;28;45498;-61
2021/07/20 05:57:36;;;;;;;;;20.00;20.00;;;;;21.26;58.13;101176.56;4975878;28;46070;-60
2021/07/20 06:00:09;;;;;;;;;21.75;18.25;;;;;21.33;57.79;101188.16;4974537;28;45295;-60
2021/07/20 06:02:35;;;;;;;;;19.25;18.50;;;;;21.39;57.10;101180.38;4978182;27;45227;-61
2021/07/20 06:05:01;;;;;;;;;22.00;19.00;;;;;21.47;57.00;101190.91;4974436;28;45494;-61
2021/07/20 06:07:27;;;;;;;;;20.50;18.75;;;;;21.55;56.22;101185.44;4958282;28;45412;-61
2021/07/20 06:09:52;;;;;;;;;21.75;19.25;;;;;21.60;56.67;101187.53;4958263;28;45495;-60
2021/07/20 06:12:18;;;;;;;;;22.75;18.25;;;;;21.66;55.57;101186.81;4958452;28;45443;-61
2021/07/20 06:14:43;;;;;;;;;19.75;18.25;;;;;21.73;55.43;101186.84;4957166;28;66062;-61
2021/07/20 06:17:08;;;;;;;;;21.25;19.50;;;;;21.77;54.70;101191.59;4973992;28;45958;-61
2021/07/20 06:19:34;;;;;;;;;23.50;20.25;;;;;21.79;54.99;101192.22;4973349;28;68696;-61
2021/07/20 06:22:01;;;;;;;;;24.50;22.00;;;;;21.81;55.15;101193.88;4973825;28;45525;-61
2021/07/20 06:24:27;;;;;;;;;25.00;21.50;;;;;21.82;54.55;101196.38;4959994;28;45325;-61
2021/07/20 06:26:52;;;;;;;;;25.50;20.75;;;;;21.86;54.62;101202.16;4973547;28;61322;-60
2021/07/20 06:29:17;;;;;;;;;24.50;22.75;;;;;21.89;54.42;101196.41;4973469;28;65641;-61
2021/07/20 06:31:45;;;;;;;;;25.50;23.00;;;;;21.94;54.37;101197.50;4958264;28;45230;-61
2021/07/20 06:34:12;;;;;;;;;23.00;20.75;;;;;22.04;54.60;101199.81;4958416;28;45374;-61
2021/07/20 06:36:38;;;;;;;;;27.50;23.75;;;;;22.14;54.14;101206.69;4974781;28;47718;-61
2021/07/20 06:39:06;;;;;;;;;23.50;23.25;;;;;22.21;53.74;101205.69;4957056;28;69893;-61
2021/07/20 06:41:35;;;;;;;;;33.00;27.50;;;;;22.29;53.39;101202.00;4958055;28;45444;-60
2021/07/20 06:44:01;;;;;;;;;26.25;23.50;;;;;22.36;52.84;101192.16;4958162;28;45381;-61
2021/07/20 06:46:28;;;;;;;;;24.25;22.75;;;;;22.43;52.59;101196.72;4973896;28;46109;-61
2021/07/20 06:48:54;;;;;;;;;25.50;24.50;;;;;22.51;52.10;101202.78;4958218;28;46062;-60
2021/07/20 06:51:19;;;;;;;;;34.25;28.75;;;;;22.57;51.36;101203.84;4973181;28;68483;-60
2021/07/20 06:53:44;;;;;;;;;33.50;28.25;;;;;22.63;51.55;101213.75;4975352;28;45591;-60
2021/07/20 06:56:14;;;;;;;;;27.25;25.25;;;;;22.68;50.92;101202.44;4974425;28;67022;-61
2021/07/20 06:58:40;;;;;;;;;28.50;24.50;;;;;22.72;50.94;101216.25;4958133;28;48568;-61
2021/07/20 07:01:06;;;;;;;;;28.25;23.75;;;;;22.77;50.14;101217.28;4957909;28;45357;-60
2021/07/20 07:03:57;;;;;;;;;29.50;27.25;;;;;22.82;49.68;101216.69;4974008;28;45530;-60
2021/07/20 07:06:24;;;;;;;;;30.50;26.25;;;;;22.91;50.03;101217.34;4959849;28;73360;-60
2021/07/20 07:08:49;;;;;;;;;29.75;28.00;;;;;23.02;50.25;101211.41;4975618;28;45859;-61
2021/07/20 07:11:15;;;;;;;;;29.00;25.50;;;;;23.16;50.02;101214.09;4973408;28;58450;-61
2021/07/20 07:13:40;;;;;;;;;29.75;26.75;;;;;23.27;49.40;101214.38;4974927;28;45432;-61
2021/07/20 07:16:05;;;;;;;;;32.00;30.25;;;;;23.38;49.07;101212.09;4973814;28;72610;-60
2021/07/20 07:18:31;;;;;;;;;31.50;27.25;;;;;23.49;48.39;101216.03;4972889;28;70853;-61
2021/07/20 07:20:56;;;;;;;;;31.75;28.75;;;;;23.60;48.21;101215.41;4973606;28;45737;-61
2021/07/20 07:23:22;;;;;;;;;30.50;27.25;;;;;23.70;48.02;101217.69;4941403;28;45591;-61
2021/07/20 07:25:48;;;;;;;;;30.25;29.25;;;;;23.83;47.68;101219.53;4956622;28;70373;-61
2021/07/20 07:28:14;;;;;;;;;38.00;31.75;;;;;23.93;47.79;101222.63;4973647;28;45417;-61
2021/07/20 07:30:39;;;;;;;;;31.00;26.00;;;;;24.04;47.96;101223.84;4973695;28;45461;-61
2021/07/20 07:33:05;;;;;;;;;31.25;25.50;;;;;24.18;47.81;101229.22;4956589;28;61700;-61
2021/07/20 07:35:30;;;;;;;;;32.75;26.25;;;;;24.30;47.67;101225.66;4974591;28;46769;-61
2021/07/20 07:37:56;;;;;;;;;26.75;24.50;;;;;24.44;47.17;101221.06;4957083;28;45679;-62
2021/07/20 07:40:22;;;;;;;;;28.50;26.00;;;;;24.58;47.32;101223.72;4987469;28;54731;-61
2021/07/20 07:42:47;;;;;;;;;32.75;26.50;;;;;24.71;47.06;101226.34;4977294;28;45514;-62
2021/07/20 07:45:13;;;;;;;;;29.75;26.50;;;;;24.87;46.71;101229.63;4999716;27;70656;-61
2021/07/20 07:47:38;;;;;;;;;25.00;24.00;;;;;25.01;46.26;101230.38;4970637;28;45446;-61
2021/07/20 07:50:05;;;;;;;;;29.00;23.00;;;;;25.13;45.94;101225.13;4955779;28;45397;-61
2021/07/20 07:52:31;;;;;;;;;28.75;24.25;;;;;25.25;46.09;101227.94;4972145;28;45459;-61
2021/07/20 07:54:56;;;;;;;;;26.75;25.50;;;;;25.34;45.79;101232.84;4970920;28;46012;-61
2021/07/20 07:57:21;;;;;;;;;28.50;24.00;;;;;25.44;45.41;101227.00;4974776;28;68298;-61
2021/07/20 07:59:50;;;;;;;;;30.25;26.25;;;;;25.55;44.56;101224.66;4952755;28;60011;-61
2021/07/20 08:02:22;;;;;;;;;28.25;23.25;;;;;25.60;44.52;101225.63;4985162;28;45467;-61
2021/07/20 08:04:48;;;;;;;;;31.50;25.00;;;;;25.71;44.43;101221.38;4972132;28;46496;-60
2021/07/20 08:07:13;;;;;;;;;26.75;25.50;;;;;25.84;44.21;101225.00;4970736;28;45386;-60
2021/07/20 08:09:39;;;;;;;;;25.75;24.00;;;;;25.95;44.06;101228.84;4970614;28;66666;-61
2021/07/20 08:12:04;;;;;;;;;30.50;26.50;;;;;26.06;43.71;101225.41;4968589;28;45671;-61
2021/07/20 08:14:29;;;;;;;;;28.25;27.25;;;;;26.17;43.41;101234.66;4970820;28;46177;-60
2021/07/20 08:16:57;;;;;;;;;33.75;27.00;;;;;26.23;43.17;101231.06;4970884;28;45657;-61
2021/07/20 08:19:26;;;;;;;;;26.25;23.25;;;;;26.31;42.99;101229.94;4976596;28;46057;-61
2021/07/20 08:21:57;;;;;;;;;27.75;24.50;;;;;26.39;41.57;101231.50;4989669;27;45633;-61
2021/07/20 08:24:22;;;;;;;;;29.50;26.50;;;;;26.49;41.34;101231.81;4992765;28;45515;-62
2021/07/20 08:26:54;;;;;;;;;33.25;26.00;;;;;26.59;41.18;101234.78;5015472;27;72981;-61
2021/07/20 08:29:21;;;;;;;;;33.50;30.00;;;;;26.67;41.50;101233.66;4974073;28;45535;-61
2021/07/20 08:31:49;;;;;;;;;25.75;23.25;;;;;26.78;40.91;101232.88;4954305;28;45511;-61
2021/07/20 08:34:15;;;;;;;;;30.25;26.00;;;;;26.91;40.85;101226.50;4970231;28;46261;-61
2021/07/20 08:36:41;;;;;;;;;30.25;25.25;;;;;27.02;40.91;101224.94;4963536;28;45585;-61
2021/07/20 08:39:10;;;;;;;;;27.50;23.25;;;;;27.10;40.32;101227.28;4973332;28;45513;-62
2021/07/20 08:42:13;;;;;;;;;28.25;23.75;;;;;27.20;40.27;101221.34;4973988;28;45498;-62
2021/07/20 08:45:16;;;;;;;;;29.00;25.25;;;;;27.29;40.08;101216.44;4970752;28;45467;-61
2021/07/20 08:47:41;;;;;;;;;27.50;24.25;;;;;27.38;40.52;101217.75;4986152;28;45925;-61
2021/07/20 08:50:18;;;;;;;;;30.67;27.00;;;;;27.51;39.73;101227.50;4979027;28;45431;-61
2021/07/20 08:53:03;;;;;;;;;27.75;24.00;;;;;27.63;39.56;101227.53;4980802;28;45489;-62
2021/07/20 08:55:28;;;;;;;;;29.00;26.50;;;;;27.75;39.28;101232.94;4972440;28;45399;-61
2021/07/20 08:58:04;;;;;;;;;25.00;23.50;;;;;27.86;39.28;101236.69;4936492;28;73098;-60
2021/07/20 09:00:36;;;;;;;;;29.25;22.50;;;;;27.96;37.87;101234.22;4976380;28;45490;-60
2021/07/20 09:03:49;;;;;;;;;24.25;20.75;;;;;28.12;38.75;101229.16;4982413;28;45376;-62
2021/07/20 09:06:18;;;;;;;;;24.50;21.50;;;;;28.26;38.09;101230.56;4961135;28;45373;-60
2021/07/20 09:09:01;;;;;;;;;26.50;22.00;;;;;28.35;37.80;101236.41;4974617;28;45368;-61
2021/07/20 09:11:41;;;;;;;;;28.50;22.75;;;;;28.43;37.53;101235.25;5019466;28;45439;-61
2021/07/20 09:14:22;;;;;;;;;22.00;21.25;;;;;28.50;37.08;101235.94;5027202;28;45586;-61
2021/07/20 09:16:51;;;;;;;;;29.00;23.00;;;;;28.55;36.75;101229.78;5024211;27;45483;-62
2021/07/20 09:19:28;;;;;;;;;22.50;20.75;;;;;28.63;36.64;101236.69;4972920;28;45992;-61
2021/07/20 09:21:55;;;;;;;;;27.75;20.50;;;;;28.69;37.16;101238.44;4976658;28;45505;-61
2021/07/20 09:24:31;;;;;;;;;27.00;23.50;;;;;28.70;36.63;101231.97;4957889;28;45579;-60
2021/07/20 09:27:06;;;;;;;;;24.00;22.25;;;;;28.77;36.69;101232.69;4972361;28;45549;-60
2021/07/20 09:29:31;;;;;;;;;28.50;20.25;;;;;28.86;37.10;101235.84;5000109;28;45466;-61
2021/07/20 09:32:21;;;;;;;;;24.50;21.00;;;;;28.97;36.84;101226.81;4987197;28;49906;-60
2021/07/20 09:35:10;;;;;;;;;23.75;22.00;;;;;29.12;36.63;101228.16;4957963;28;45508;-61
2021/07/20 09:37:47;;;;;;;;;26.00;23.75;;;;;29.24;36.30;101230.78;4971920;28;45359;-61
2021/07/20 09:40:30;;;;;;;;;27.75;22.25;;;;;29.35;36.46;101229.09;4964682;28;45784;-62
2021/07/20 09:43:00;;;;;;;;;24.25;20.75;;;;;29.41;35.29;101218.13;4960005;28;45415;-61
2021/07/20 09:45:31;;;;;;;;;25.50;20.50;;;;;29.41;35.88;101212.72;4973569;28;45469;-61
2021/07/20 09:48:22;;;;;;;;;26.50;22.75;;;;;29.45;35.74;101213.03;4999250;28;45588;-61
2021/07/20 09:50:47;;;;;;;;;24.75;21.50;;;;;29.49;36.10;101218.78;5019052;28;45906;-61
2021/07/20 09:53:58;;;;;;;;;23.25;19.75;;;;;29.51;35.59;101225.56;5009171;28;45514;-62
2021/07/20 09:56:35;;;;;;;;;25.50;22.00;;;;;29.60;35.81;101215.16;4991581;28;45569;-62
2021/07/20 09:59:22;;;;;;;;;23.00;20.75;;;;;29.66;35.47;101222.31;5027653;28;46507;-61
2021/07/20 10:01:54;;;;;;;;;31.00;22.50;;;;;29.72;35.26;101217.78;5042277;28;45317;-61
2021/07/20 10:04:52;;;;;;;;;21.00;20.75;;;;;29.75;35.59;101220.78;4972293;28;45434;-61
2021/07/20 10:07:39;;;;;;;;;23.00;20.50;;;;;29.74;35.47;101224.56;4963456;28;45438;-60
2021/07/20 10:10:19;;;;;;;;;24.75;22.25;;;;;29.77;35.35;101217.84;4983155;28;46216;-61
2021/07/20 10:13:03;;;;;;;;;20.25;19.75;;;;;29.87;35.61;101219.88;4975849;28;45498;-60
2021/07/20 10:15:57;;;;;;;;;24.25;21.50;;;;;29.99;35.32;101215.19;4987615;27;45643;-62
2021/07/20 10:18:54;;;;;;;;;22.75;20.00;;;;;30.17;35.18;101216.78;4982331;28;45597;-61
2021/07/20 10:21:20;;;;;;;;;19.25;19.00;;;;;30.27;34.93;101212.56;4971409;28;45578;-61
2021/07/20 10:24:09;;;;;;;;;26.00;21.00;;;;;30.37;34.73;101210.00;5017471;28;45447;-62
2021/07/20 10:26:56;;;;;;;;;31.25;26.00;;;;;30.43;33.69;101208.13;5000539;28;45478;-61
2021/07/20 10:29:43;;;;;;;;;22.50;18.50;;;;;30.42;34.17;101206.50;5006256;28;45488;-61
2021/07/20 10:32:12;;;;;;;;;28.00;25.00;;;;;30.46;34.45;101203.06;4986460;28;45464;-62
2021/07/20 10:34:41;;;;;;;;;20.25;16.75;;;;;30.53;34.08;101208.25;5031834;28;45424;-60
2021/07/20 10:37:27;;;;;;;;;20.00;20.00;;;;;30.61;34.05;101197.00;4983557;28;45407;-61
2021/07/20 10:40:14;;;;;;;;;23.75;21.50;;;;;30.76;34.07;101209.88;4971255;28;45201;-61
2021/07/20 10:42:50;;;;;;;;;25.75;23.00;;;;;30.87;33.91;101201.84;4972731;28;45468;-59
2021/07/20 10:45:17;;;;;;;;;24.75;21.50;;;;;30.88;33.59;101193.44;4973975;28;45569;-61
2021/07/20 10:48:00;;;;;;;;;25.25;22.25;;;;;30.94;33.45;101200.56;4973736;28;45427;-61
2021/07/20 10:50:27;;;;;;;;;25.00;23.00;;;;;30.96;32.96;101196.78;4971336;28;45426;-61
2021/07/20 10:53:08;;;;;;;;;21.25;18.25;;;;;30.98;32.52;101194.63;4972725;28;46174;-62
2021/07/20 10:55:59;;;;;;;;;20.75;19.25;;;;;31.02;32.97;101187.59;4956728;28;45583;-60
2021/07/20 10:58:46;;;;;;;;;18.50;17.50;;;;;31.12;33.23;101192.28;4972410;28;45459;-61
2021/07/20 11:01:21;;;;;;;;;21.25;15.75;;;;;31.23;31.91;101189.44;4973630;28;45476;-61
2021/07/20 11:04:07;;;;;;;;;16.50;14.75;;;;;31.35;32.17;101183.81;4972871;28;46273;-61
2021/07/20 11:06:34;;;;;;;;;16.50;15.50;;;;;31.52;32.09;101177.44;4970348;28;45512;-61
2021/07/20 11:09:00;;;;;;;;;17.50;16.50;;;;;31.63;31.56;101184.53;4972724;28;45513;-61
2021/07/20 11:11:34;;;;;;;;;20.75;18.00;;;;;31.70;31.59;101184.31;4972799;28;45479;-61
2021/07/20 11:14:00;;;;;;;;;21.75;17.50;;;;;31.75;31.59;101184.38;4971801;28;50428;-61
2021/07/20 11:16:25;;;;;;;;;20.00;18.75;;;;;31.82;31.64;101175.97;4972257;28;59920;-62
2021/07/20 11:18:50;;;;;;;;;19.00;16.25;;;;;31.90;31.34;101180.09;4972550;28;45563;-61
2021/07/20 11:21:19;;;;;;;;;16.75;15.75;;;;;31.91;31.58;101185.28;4972480;28;45569;-60
2021/07/20 11:23:45;;;;;;;;;24.75;19.25;;;;;31.90;31.11;101190.94;4973513;28;45896;-61
2021/07/20 11:26:10;;;;;;;;;20.75;18.00;;;;;31.91;30.54;101187.16;4956389;28;45373;-61